Adelaide, South Australia

8:14 AM ACST on September 28, 2016 (GMT +0930)
West Beach | | Change Station

Elev 26 ft 34.94 °S, 138.51 °E | Updated 13 minutes ago

Clear
Clear
60.5 °F
Feels Like 60.5 °F
N
2.0
Wind Variable Wind from NE
Gusts 8.0 mph

Today
High -- | Low -- °F
--% Chance of Precip.
Yesterday
High -- | Low -- °F
Precip. -- in
Pressure 29.65 in
Visibility -9999.0 miles
Clouds
Dew Point 44 °F
Humidity 56%
Rainfall 0.00 in
Snow Depth Not available.
5:56 AM 6:16 PM
Waning Crescent, 9% visible
METAR YPAD 272230Z 05016KT CAVOK 16/04 Q1004 NOSIG
Pressure 29.65 in
Visibility -9999.0 miles
Clouds
Dew Point 44 °F
Humidity 56%
Rainfall 0.00 in
Snow Depth Not available.
5:56 AM 6:16 PM
Waning Crescent, 9% visible
METAR YPAD 272230Z 05016KT CAVOK 16/04 Q1004 NOSIG

10-Day Weather Forecast

Almanac

Astronomy

Sep. 28, 2016 Rise Set
Actual Time
Civil Twilight
Nautical Twilight
Astronomical Twilight
Moon
Length of Visible Light
Length of Day
Tomorrow will be .
, % of the Moon is Illuminated

Today's Extremes

Country Highs Country Lows

Community

WunderPhotos

Upload Photos

1,942,174 photos uploaded!

WunderBlog® & News

Nearby

Air Quality

  Air Quality AQ Index Pollutant
Not available.

Snow Depth

Station Depth Elevation

Earthquake Activity

City Distance Mag. Time & Date
Minimum magnitude displayed is 2.5.

Coastal Water Temperatures

Place Temperature

Stations

Nearby Weather Stations

Station Location Temp. Windchill Dew Point Humidity Wind Precip. Elev Updated Type